createdAt,value
2018-05-15T00:01:04.183Z,55.77
2018-05-15T00:03:31.751Z,55.78
2018-05-15T00:05:59.339Z,55.93
2018-05-15T00:08:26.899Z,56.21
2018-05-15T00:10:54.913Z,56.66
2018-05-15T00:13:22.474Z,56.70
2018-05-15T00:15:50.274Z,56.69
2018-05-15T00:18:17.872Z,56.62
2018-05-15T00:20:45.662Z,56.91
2018-05-15T00:23:13.595Z,57.09
2018-05-15T00:25:41.165Z,57.30
2018-05-15T00:28:08.828Z,57.36
2018-05-15T00:30:36.434Z,57.56
2018-05-15T00:33:04.199Z,57.75
2018-05-15T00:35:32.004Z,57.93
2018-05-15T00:37:59.580Z,57.99
2018-05-15T00:40:27.209Z,58.15
2018-05-15T00:42:54.881Z,58.34
2018-05-15T00:45:22.586Z,58.63
2018-05-15T00:47:50.148Z,58.79
2018-05-15T00:50:18.281Z,59.12
2018-05-15T00:52:45.844Z,59.30
2018-05-15T00:55:25.212Z,59.52
2018-05-15T00:57:53.116Z,59.86
2018-05-15T01:00:20.744Z,60.58
2018-05-15T01:02:48.614Z,60.27
2018-05-15T01:05:16.173Z,60.27
2018-05-15T01:07:43.815Z,60.42
2018-05-15T01:10:11.476Z,60.48
2018-05-15T01:12:39.043Z,60.56
2018-05-15T01:15:06.652Z,60.72
2018-05-15T01:17:34.274Z,60.84
2018-05-15T01:20:01.901Z,61.10
2018-05-15T01:22:29.484Z,61.16
2018-05-15T01:24:57.131Z,61.52
2018-05-15T01:27:24.767Z,61.57
2018-05-15T01:29:52.706Z,61.72
2018-05-15T01:32:20.291Z,61.82
2018-05-15T01:34:48.056Z,61.97
2018-05-15T01:37:15.614Z,62.13
2018-05-15T01:39:43.213Z,62.09
2018-05-15T01:42:10.810Z,62.28
2018-05-15T01:44:38.472Z,62.57
2018-05-15T01:47:06.040Z,62.86
2018-05-15T01:49:33.754Z,63.24
2018-05-15T01:52:01.326Z,63.21
2018-05-15T01:54:28.893Z,63.27
2018-05-15T01:56:56.495Z,63.33
2018-05-15T01:59:24.205Z,63.42
2018-05-15T02:01:51.776Z,63.60
2018-05-15T02:04:19.351Z,63.77
2018-05-15T02:06:46.949Z,63.97
2018-05-15T02:09:14.936Z,63.81
2018-05-15T02:11:43.295Z,64.08
2018-05-15T02:14:11.287Z,64.27
2018-05-15T02:16:39.337Z,64.24
2018-05-15T02:19:07.331Z,64.37
2018-05-15T02:21:35.337Z,64.71
2018-05-15T02:24:02.974Z,64.72
2018-05-15T02:26:30.538Z,65.00
2018-05-15T02:28:58.109Z,65.17
2018-05-15T02:31:25.722Z,65.25
2018-05-15T02:33:53.388Z,65.18
2018-05-15T02:36:21.000Z,65.37
2018-05-15T02:38:48.807Z,65.49
2018-05-15T02:41:16.421Z,65.57
2018-05-15T02:43:44.220Z,65.57
2018-05-15T02:46:11.809Z,65.74
2018-05-15T02:48:39.375Z,65.81
2018-05-15T02:51:06.982Z,66.03
2018-05-15T02:53:34.839Z,66.12
2018-05-15T02:56:02.421Z,66.50
2018-05-15T02:58:30.099Z,66.61
2018-05-15T03:00:57.798Z,66.96
2018-05-15T03:03:25.377Z,67.03
2018-05-15T03:05:52.955Z,67.06
2018-05-15T03:08:20.556Z,67.15
2018-05-15T03:10:48.270Z,67.28
2018-05-15T03:13:15.939Z,67.43
2018-05-15T03:15:43.537Z,68.06
2018-05-15T03:18:11.287Z,67.80
2018-05-15T03:20:38.859Z,67.67
2018-05-15T03:23:06.426Z,67.65
2018-05-15T03:25:34.375Z,67.86
2018-05-15T03:28:01.951Z,68.13
2018-05-15T03:30:29.507Z,68.32
2018-05-15T03:32:57.122Z,68.41
2018-05-15T03:35:24.772Z,68.45
2018-05-15T03:37:52.540Z,68.63
2018-05-15T03:40:20.171Z,68.48
2018-05-15T03:42:47.972Z,68.48
2018-05-15T03:45:15.601Z,68.49
2018-05-15T03:47:43.181Z,68.58
2018-05-15T03:50:10.832Z,68.81
2018-05-15T03:52:38.902Z,68.81
2018-05-15T03:55:06.457Z,68.92
2018-05-15T03:57:34.060Z,69.36
2018-05-15T04:00:01.878Z,69.34
2018-05-15T04:02:41.097Z,69.42
2018-05-15T04:05:20.409Z,69.61
2018-05-15T04:08:14.708Z,69.80
2018-05-15T04:10:42.401Z,69.89
2018-05-15T04:13:09.986Z,70.01
2018-05-15T04:15:37.548Z,69.90
2018-05-15T04:18:05.602Z,70.00
2018-05-15T04:20:33.404Z,70.04
2018-05-15T04:23:00.962Z,70.05
2018-05-15T04:25:28.576Z,70.09
2018-05-15T04:27:56.140Z,70.26
2018-05-15T04:30:23.812Z,70.29
2018-05-15T04:32:51.381Z,70.64
2018-05-15T04:35:19.342Z,70.40
2018-05-15T04:37:47.153Z,70.51
2018-05-15T04:40:14.712Z,70.58
2018-05-15T04:42:42.302Z,70.60
2018-05-15T04:45:10.671Z,70.67
2018-05-15T04:47:38.238Z,70.64
2018-05-15T04:50:05.828Z,70.97
2018-05-15T04:52:33.456Z,70.77
2018-05-15T04:55:01.020Z,70.82
2018-05-15T04:57:28.591Z,70.74
2018-05-15T04:59:56.219Z,70.84
2018-05-15T05:02:23.859Z,70.75
2018-05-15T05:04:51.788Z,70.89
2018-05-15T05:07:19.362Z,70.72
2018-05-15T05:09:46.919Z,70.75
2018-05-15T05:12:14.524Z,71.12
2018-05-15T05:14:42.339Z,70.62
2018-05-15T05:17:09.902Z,70.44
2018-05-15T05:19:38.140Z,70.41
2018-05-15T05:22:05.732Z,70.45
2018-05-15T05:24:33.362Z,70.24
2018-05-15T05:27:01.513Z,70.37
2018-05-15T05:29:29.145Z,69.86
2018-05-15T05:31:56.797Z,69.88
2018-05-15T05:34:24.394Z,69.70
2018-05-15T05:36:52.257Z,69.67
2018-05-15T05:39:19.850Z,69.13
2018-05-15T05:41:47.433Z,68.85
2018-05-15T05:44:15.077Z,68.93
2018-05-15T05:46:42.715Z,68.87
2018-05-15T05:49:10.287Z,68.43
2018-05-15T05:51:37.952Z,68.16
2018-05-15T05:54:05.615Z,68.26
2018-05-15T05:56:33.276Z,68.25
2018-05-15T05:59:00.871Z,67.13
2018-05-15T06:01:28.444Z,67.18
2018-05-15T06:03:56.041Z,66.83
2018-05-15T06:06:23.840Z,65.54
2018-05-15T06:08:51.540Z,65.49
2018-05-15T06:11:19.105Z,65.70
2018-05-15T06:13:46.682Z,65.47
2018-05-15T06:16:14.379Z,64.79
2018-05-15T06:18:41.979Z,64.00
2018-05-15T06:21:09.577Z,64.10
2018-05-15T06:23:37.760Z,64.54
2018-05-15T06:26:05.418Z,64.13
2018-05-15T06:28:33.000Z,64.00
2018-05-15T06:31:00.594Z,62.00
2018-05-15T06:33:28.171Z,61.77
2018-05-15T06:35:56.153Z,61.27
2018-05-15T06:38:23.722Z,61.47
2018-05-15T06:40:51.294Z,61.85
2018-05-15T06:43:18.885Z,61.13
2018-05-15T06:45:46.472Z,61.01
2018-05-15T06:48:14.068Z,61.03
2018-05-15T06:50:41.629Z,60.21
2018-05-15T06:53:09.312Z,58.58
2018-05-15T06:55:36.881Z,58.63
2018-05-15T06:58:04.481Z,59.35
2018-05-15T07:00:32.438Z,58.71
2018-05-15T07:03:00.072Z,56.87
2018-05-15T07:05:27.656Z,57.52
2018-05-15T07:07:55.251Z,57.74
2018-05-15T07:10:22.829Z,55.71
2018-05-15T07:12:50.515Z,55.53
2018-05-15T07:15:18.316Z,55.76
2018-05-15T07:17:45.895Z,55.28
2018-05-15T07:20:13.485Z,53.61
2018-05-15T07:22:41.060Z,54.08
2018-05-15T07:25:08.746Z,54.31
2018-05-15T07:27:36.571Z,52.66
2018-05-15T07:30:04.418Z,51.11
2018-05-15T07:32:32.474Z,51.87
2018-05-15T07:35:00.051Z,51.45
2018-05-15T07:37:27.726Z,51.48
2018-05-15T07:39:55.416Z,51.99
2018-05-15T07:42:22.975Z,51.95
2018-05-15T07:44:50.538Z,51.10
2018-05-15T07:47:18.121Z,50.43
2018-05-15T07:49:45.707Z,49.25
2018-05-15T07:52:13.299Z,48.69
2018-05-15T07:54:40.860Z,50.04
2018-05-15T07:57:08.496Z,49.23
2018-05-15T07:59:36.079Z,49.47
2018-05-15T08:02:03.673Z,49.27
2018-05-15T08:04:31.319Z,48.49
2018-05-15T08:06:59.119Z,47.78
2018-05-15T08:09:26.943Z,48.06
2018-05-15T08:11:54.524Z,48.58
2018-05-15T08:14:22.452Z,48.21
2018-05-15T08:16:50.027Z,45.41
2018-05-15T08:19:17.600Z,46.17
2018-05-15T08:21:45.216Z,44.22
2018-05-15T08:24:12.784Z,45.66
2018-05-15T08:26:40.344Z,45.81
2018-05-15T08:29:08.423Z,45.42
2018-05-15T08:31:36.048Z,43.98
2018-05-15T08:34:03.617Z,44.44
2018-05-15T08:36:31.445Z,44.45
2018-05-15T08:38:59.277Z,43.46
2018-05-15T08:41:27.263Z,44.12
2018-05-15T08:43:55.149Z,42.92
2018-05-15T08:46:23.020Z,43.78
2018-05-15T08:48:50.631Z,43.67
2018-05-15T08:51:18.291Z,43.55
2018-05-15T08:53:46.369Z,40.69
2018-05-15T08:56:13.973Z,40.69
2018-05-15T08:58:41.660Z,39.10
2018-05-15T09:01:09.267Z,40.26
2018-05-15T09:03:37.161Z,40.97
2018-05-15T09:06:05.109Z,37.28
2018-05-15T09:08:32.683Z,37.97
2018-05-15T09:11:00.327Z,37.02
2018-05-15T09:13:28.285Z,38.26
2018-05-15T09:15:56.102Z,36.87
2018-05-15T09:18:23.825Z,37.85
2018-05-15T09:20:51.424Z,36.28
2018-05-15T09:23:19.000Z,35.92
2018-05-15T09:25:46.648Z,35.36
2018-05-15T09:28:14.240Z,37.04
2018-05-15T09:30:41.848Z,36.90
2018-05-15T09:33:09.460Z,36.84
2018-05-15T09:35:37.058Z,36.22
2018-05-15T09:38:04.696Z,35.12
2018-05-15T09:40:32.304Z,33.88
2018-05-15T09:43:00.171Z,32.85
2018-05-15T09:45:27.907Z,34.82
2018-05-15T09:47:55.479Z,34.46
2018-05-15T09:50:23.294Z,33.98
2018-05-15T09:52:50.971Z,34.50
2018-05-15T09:55:18.566Z,31.56
2018-05-15T09:57:46.474Z,31.02
2018-05-15T10:00:14.084Z,30.02
2018-05-15T10:02:41.673Z,30.23
2018-05-15T10:05:09.254Z,30.07
2018-05-15T10:07:36.879Z,31.40
2018-05-15T10:10:04.490Z,29.94
2018-05-15T10:12:32.388Z,30.03
2018-05-15T10:14:59.985Z,31.43
2018-05-15T10:17:27.660Z,31.29
2018-05-15T10:19:55.520Z,30.67
2018-05-15T10:22:23.103Z,30.94
2018-05-15T10:24:51.897Z,27.49
2018-05-15T10:27:19.452Z,28.53
2018-05-15T10:29:47.467Z,26.57
2018-05-15T10:32:15.144Z,27.93
2018-05-15T10:34:42.716Z,28.06
2018-05-15T10:37:10.843Z,26.48
2018-05-15T10:39:38.414Z,28.67
2018-05-15T10:42:05.987Z,29.46
2018-05-15T10:44:33.767Z,28.08
2018-05-15T10:47:01.407Z,29.50
2018-05-15T10:49:28.998Z,27.38
2018-05-15T10:51:56.675Z,27.20
2018-05-15T10:54:24.275Z,27.82
2018-05-15T10:56:52.125Z,26.46
2018-05-15T10:59:19.681Z,25.82
2018-05-15T11:01:47.504Z,26.51
2018-05-15T11:04:15.293Z,26.43
2018-05-15T11:06:42.865Z,27.38
2018-05-15T11:09:10.656Z,25.05
2018-05-15T11:11:38.250Z,25.07
2018-05-15T11:14:05.969Z,25.35
2018-05-15T11:16:33.589Z,26.07
2018-05-15T11:22:19.837Z,25.29
2018-05-15T11:24:53.490Z,26.58
2018-05-15T11:27:21.071Z,25.12
2018-05-15T11:29:48.638Z,25.36
2018-05-15T11:32:16.654Z,25.34
2018-05-15T11:34:44.212Z,25.55
2018-05-15T11:37:12.037Z,23.42
2018-05-15T11:39:39.624Z,23.97
2018-05-15T11:42:07.426Z,23.46
2018-05-15T11:44:35.041Z,24.49
2018-05-15T11:47:02.884Z,25.35
2018-05-15T11:49:31.512Z,24.40
2018-05-15T11:51:59.497Z,24.97
2018-05-15T11:54:26.692Z,25.78
2018-05-15T11:56:54.823Z,24.19
2018-05-15T11:59:22.376Z,24.78
2018-05-15T12:01:49.952Z,24.22
2018-05-15T12:04:17.895Z,25.07
2018-05-15T12:06:45.527Z,23.02
2018-05-15T12:09:13.195Z,23.77
2018-05-15T12:11:40.766Z,23.90
2018-05-15T12:14:08.711Z,24.44
2018-05-15T12:16:36.574Z,23.69
2018-05-15T12:19:04.172Z,24.43
2018-05-15T12:21:31.800Z,23.75
2018-05-15T12:23:59.513Z,23.56
2018-05-15T12:29:22.500Z,23.10
2018-05-15T12:31:50.164Z,23.92
2018-05-15T12:34:17.759Z,24.39
2018-05-15T12:36:45.412Z,25.57
2018-05-15T12:39:13.096Z,23.68
2018-05-15T12:41:40.941Z,23.43
2018-05-15T12:44:08.815Z,23.98
2018-05-15T12:46:36.495Z,22.80
2018-05-15T12:49:04.268Z,22.68
2018-05-15T12:51:31.883Z,23.35
2018-05-15T12:53:59.530Z,24.66
2018-05-15T12:56:27.090Z,24.44
2018-05-15T12:58:54.694Z,22.23
2018-05-15T13:01:22.355Z,23.13
2018-05-15T13:03:49.975Z,22.52
2018-05-15T13:06:17.564Z,23.12
2018-05-15T13:08:45.255Z,21.74
2018-05-15T13:11:12.819Z,22.05
2018-05-15T13:13:40.409Z,22.69
2018-05-15T13:16:08.292Z,21.55
2018-05-15T13:18:36.944Z,22.78
2018-05-15T13:21:04.504Z,21.96
2018-05-15T13:23:32.114Z,21.17
2018-05-15T13:25:59.828Z,21.86
2018-05-15T13:28:27.656Z,21.66
2018-05-15T13:30:55.266Z,22.47
2018-05-15T13:33:22.861Z,22.53
2018-05-15T13:35:50.459Z,22.08
2018-05-15T13:38:18.464Z,21.98
2018-05-15T13:40:46.058Z,22.33
2018-05-15T13:43:13.648Z,21.96
2018-05-15T13:45:41.330Z,21.51
2018-05-15T13:48:08.995Z,21.70
2018-05-15T13:50:36.657Z,22.90
2018-05-15T13:53:04.203Z,22.63
2018-05-15T13:55:32.309Z,21.34
2018-05-15T13:57:59.888Z,22.25
2018-05-15T14:00:27.458Z,22.50
2018-05-15T14:02:55.292Z,22.76
2018-05-15T14:05:22.901Z,23.05
2018-05-15T14:07:50.482Z,22.52
2018-05-15T14:10:18.159Z,22.11
2018-05-15T14:12:45.824Z,22.43
2018-05-15T14:15:13.446Z,23.09
2018-05-15T14:17:41.322Z,22.21
2018-05-15T14:20:08.916Z,23.39
2018-05-15T14:22:36.529Z,23.56
2018-05-15T14:25:04.175Z,22.57
2018-05-15T14:27:32.200Z,24.27
2018-05-15T14:29:59.845Z,24.16
2018-05-15T14:32:27.413Z,23.29
2018-05-15T14:34:55.148Z,22.24
2018-05-15T14:37:22.778Z,22.58
2018-05-15T14:39:50.856Z,24.02
2018-05-15T14:42:30.350Z,22.32
2018-05-15T14:44:57.974Z,22.42
2018-05-15T14:47:25.543Z,22.88
2018-05-15T14:49:53.136Z,23.40
2018-05-15T14:52:22.002Z,23.86
2018-05-15T14:54:49.699Z,24.00
2018-05-15T14:57:17.420Z,23.17
2018-05-15T14:59:45.032Z,23.90
2018-05-15T15:02:12.625Z,24.04
2018-05-15T15:04:40.225Z,24.42
2018-05-15T15:07:07.808Z,23.21
2018-05-15T15:09:35.421Z,23.76
2018-05-15T15:12:03.046Z,25.46
2018-05-15T15:14:30.656Z,24.40
2018-05-15T15:16:58.286Z,25.58
2018-05-15T15:19:26.196Z,26.09
2018-05-15T15:21:53.769Z,24.55
2018-05-15T15:24:21.374Z,24.52
2018-05-15T15:26:48.984Z,24.54
2018-05-15T15:29:16.963Z,25.22
2018-05-15T15:31:44.477Z,25.90
2018-05-15T15:34:12.088Z,25.67
2018-05-15T15:36:40.032Z,26.18
2018-05-15T15:39:07.841Z,25.69
2018-05-15T15:41:35.440Z,26.83
2018-05-15T15:44:03.133Z,26.11
2018-05-15T15:46:30.752Z,26.94
2018-05-15T15:48:58.921Z,26.35
2018-05-15T15:51:26.510Z,26.86
2018-05-15T15:53:54.085Z,26.90
2018-05-15T15:56:21.696Z,26.65
2018-05-15T15:58:49.324Z,25.57
2018-05-15T16:01:16.902Z,25.72
2018-05-15T16:03:45.604Z,27.05
2018-05-15T16:06:13.194Z,26.55
2018-05-15T16:08:40.997Z,25.71
2018-05-15T16:11:08.638Z,26.47
2018-05-15T16:13:36.258Z,27.46
2018-05-15T16:16:03.849Z,29.78
2018-05-15T16:18:31.427Z,30.50
2018-05-15T16:20:59.018Z,31.14
2018-05-15T16:23:26.594Z,31.33
2018-05-15T16:25:54.665Z,30.59
2018-05-15T16:28:22.570Z,30.56
2018-05-15T16:30:50.197Z,31.41
2018-05-15T16:33:17.782Z,31.80
2018-05-15T16:35:45.425Z,32.05
2018-05-15T16:38:13.139Z,32.76
2018-05-15T16:40:41.027Z,33.16
2018-05-15T16:43:08.629Z,33.17
2018-05-15T16:45:36.310Z,33.75
2018-05-15T16:48:03.972Z,34.00
2018-05-15T16:50:31.570Z,34.04
2018-05-15T16:52:59.131Z,33.58
2018-05-15T16:55:26.835Z,33.91
2018-05-15T16:57:54.393Z,34.25
2018-05-15T17:00:21.950Z,33.62
2018-05-15T17:02:49.893Z,33.33
2018-05-15T17:05:17.473Z,33.76
2018-05-15T17:07:45.134Z,34.52
2018-05-15T17:10:12.740Z,34.93
2018-05-15T17:12:40.568Z,34.65
2018-05-15T17:15:08.203Z,34.65
2018-05-15T17:17:36.035Z,35.73
2018-05-15T17:20:03.632Z,35.49
2018-05-15T17:22:31.198Z,36.32
2018-05-15T17:24:59.034Z,35.36
2018-05-15T17:27:26.709Z,36.83
2018-05-15T17:29:54.400Z,36.48
2018-05-15T17:32:21.980Z,37.02
2018-05-15T17:34:49.773Z,37.66
2018-05-15T17:37:17.353Z,37.76
2018-05-15T17:39:44.907Z,38.16
2018-05-15T17:42:12.499Z,37.70
2018-05-15T17:44:40.162Z,37.81
2018-05-15T17:47:07.739Z,37.97
2018-05-15T17:49:35.341Z,38.31
2018-05-15T17:52:03.131Z,38.30
2018-05-15T17:54:31.073Z,38.66
2018-05-15T17:56:58.887Z,38.83
2018-05-15T17:59:26.517Z,38.96
2018-05-15T18:01:54.057Z,39.10
2018-05-15T18:04:22.008Z,39.60
2018-05-15T18:06:49.838Z,40.02
2018-05-15T18:09:17.436Z,39.86
2018-05-15T18:11:45.072Z,40.01
2018-05-15T18:14:12.700Z,40.35
2018-05-15T18:16:40.282Z,40.23
2018-05-15T18:19:07.997Z,40.70
2018-05-15T18:21:35.560Z,41.35
2018-05-15T18:24:03.208Z,41.54
2018-05-15T18:26:30.800Z,41.81
2018-05-15T18:28:58.370Z,42.01
2018-05-15T18:31:25.963Z,42.59
2018-05-15T18:33:53.841Z,42.71
2018-05-15T18:36:21.720Z,42.78
2018-05-15T18:38:49.291Z,42.73
2018-05-15T18:41:16.886Z,43.26
2018-05-15T18:43:44.448Z,43.66
2018-05-15T18:46:12.043Z,44.37
2018-05-15T18:48:39.638Z,44.53
2018-05-15T18:51:07.273Z,44.85
2018-05-15T18:53:35.136Z,45.11
2018-05-15T18:56:02.798Z,45.35
2018-05-15T18:58:30.590Z,45.68
2018-05-15T19:00:58.535Z,46.03
2018-05-15T19:03:26.109Z,45.94
2018-05-15T19:05:53.701Z,46.04
2018-05-15T19:08:21.297Z,46.29
2018-05-15T19:10:48.870Z,46.52
2018-05-15T19:13:16.496Z,47.01
2018-05-15T19:15:44.115Z,47.25
2018-05-15T19:18:11.670Z,47.45
2018-05-15T19:20:39.248Z,47.97
2018-05-15T19:23:07.360Z,48.19
2018-05-15T19:25:35.181Z,48.30
2018-05-15T19:28:02.752Z,48.95
2018-05-15T19:30:30.347Z,49.31
2018-05-15T19:33:04.334Z,49.39
2018-05-15T19:35:37.747Z,49.87
2018-05-15T19:38:05.388Z,50.00
2018-05-15T19:40:32.971Z,50.39
2018-05-15T19:43:00.529Z,50.71
2018-05-15T19:45:28.120Z,50.91
2018-05-15T19:47:55.708Z,51.59
2018-05-15T19:50:23.280Z,51.82
2018-05-15T19:52:51.104Z,52.56
2018-05-15T19:55:18.685Z,52.83
2018-05-15T19:57:46.489Z,53.24
2018-05-15T20:00:14.103Z,53.36
2018-05-15T20:02:41.681Z,54.00
2018-05-15T20:05:09.241Z,54.24
2018-05-15T20:07:37.140Z,54.53
2018-05-15T20:10:04.759Z,54.94
2018-05-15T20:12:32.362Z,55.68
2018-05-15T20:14:59.928Z,55.87
2018-05-15T20:17:27.533Z,56.05
2018-05-15T20:19:55.103Z,56.54
2018-05-15T20:22:22.715Z,57.13
2018-05-15T20:24:50.373Z,57.02
2018-05-15T20:27:17.934Z,57.34
2018-05-15T20:29:45.486Z,57.49
2018-05-15T20:32:13.078Z,57.56
2018-05-15T20:34:40.783Z,58.36
2018-05-15T20:37:08.437Z,58.56
2018-05-15T20:39:36.007Z,58.85
2018-05-15T20:42:03.673Z,59.43
2018-05-15T20:44:31.382Z,59.80
2018-05-15T20:46:58.960Z,60.24
2018-05-15T20:49:26.531Z,60.81
2018-05-15T20:51:54.379Z,61.21
2018-05-15T20:54:21.939Z,61.84
2018-05-15T20:56:49.518Z,62.53
2018-05-15T20:59:17.529Z,62.82
2018-05-15T21:01:45.092Z,62.50
2018-05-15T21:04:12.668Z,62.66
2018-05-15T21:06:40.598Z,62.99
2018-05-15T21:09:08.203Z,62.80
2018-05-15T21:11:36.068Z,62.99
2018-05-15T21:14:03.700Z,62.94
2018-05-15T21:16:31.423Z,63.07
2018-05-15T21:18:59.029Z,63.21
2018-05-15T21:21:26.634Z,63.39
2018-05-15T21:23:54.316Z,63.47
2018-05-15T21:26:21.885Z,63.30
2018-05-15T21:28:49.616Z,63.16
2018-05-15T21:31:17.253Z,62.87
2018-05-15T21:33:44.872Z,62.53
2018-05-15T21:36:12.530Z,62.40
2018-05-15T21:38:40.164Z,62.14
2018-05-15T21:41:07.764Z,61.98
2018-05-15T21:43:35.603Z,61.80
2018-05-15T21:46:03.250Z,61.66
2018-05-15T21:48:30.827Z,61.68
2018-05-15T21:50:58.432Z,61.65
2018-05-15T21:53:26.175Z,61.10
2018-05-15T21:55:53.947Z,60.67
2018-05-15T21:58:21.816Z,60.54
2018-05-15T22:00:49.817Z,60.06
2018-05-15T22:03:17.539Z,59.73
2018-05-15T22:05:48.144Z,59.67
2018-05-15T22:08:15.746Z,59.69
2018-05-15T22:10:43.542Z,59.14
2018-05-15T22:13:22.963Z,59.15
2018-05-15T22:16:02.838Z,59.10
2018-05-15T22:18:42.248Z,59.02
2018-05-15T22:21:21.583Z,58.98
2018-05-15T22:23:48.895Z,58.68
2018-05-15T22:26:16.558Z,58.69
2018-05-15T22:28:44.411Z,58.48
2018-05-15T22:31:12.063Z,58.59
2018-05-15T22:33:39.848Z,58.64
2018-05-15T22:36:07.427Z,58.65
2018-05-15T22:38:35.569Z,58.43
2018-05-15T22:41:03.236Z,58.29
2018-05-15T22:43:30.826Z,58.15
2018-05-15T22:45:58.535Z,58.45
2018-05-15T22:48:26.175Z,58.52
2018-05-15T22:50:53.863Z,58.16
2018-05-15T22:53:21.569Z,58.21
2018-05-15T22:55:49.187Z,58.56
2018-05-15T22:58:17.157Z,58.71
2018-05-15T23:00:44.844Z,58.90
2018-05-15T23:03:12.476Z,59.01
2018-05-15T23:05:40.606Z,58.97
2018-05-15T23:08:08.221Z,58.84
2018-05-15T23:10:35.897Z,59.21
2018-05-15T23:13:03.793Z,59.28
2018-05-15T23:15:31.467Z,59.37
2018-05-15T23:17:59.077Z,59.17
2018-05-15T23:20:27.092Z,58.72
2018-05-15T23:22:54.651Z,59.00
2018-05-15T23:25:22.560Z,58.89
2018-05-15T23:27:50.217Z,58.88
2018-05-15T23:30:17.867Z,58.80
2018-05-15T23:32:45.432Z,58.86
2018-05-15T23:35:13.289Z,58.80
2018-05-15T23:37:41.315Z,59.14
2018-05-15T23:40:09.028Z,58.99
2018-05-15T23:42:36.671Z,59.12
2018-05-15T23:45:04.314Z,59.24
2018-05-15T23:47:32.265Z,59.25
2018-05-15T23:50:00.328Z,59.26
2018-05-15T23:52:27.919Z,59.15
2018-05-15T23:54:55.490Z,59.11
2018-05-15T23:57:23.119Z,59.29
2018-05-15T23:59:50.703Z,59.60
